Terminal Aerodrome Forecast
Issued by NWS Blacksburg, VA

Current Version | Previous Version | Text Only | Print | Product List | Glossary Off
Versions: 1 2 3 4 5 6 7 8 9 10 11 12 13 14 15 16 17 18 19 20 21 22 23 24 25 26 27 28 29 30 31 32 33 34 35 36 37 38

000
FTUS41 KRNK 151140
TAFBLF
TAF
KBLF 151140Z 1512/1612 VRB03KT 1SM BR OVC003
      TEMPO 1512/1514 1/4SM FG VV002
     FM151500 VRB03KT 3SM BR OVC004
     FM151800 20005KT P6SM SCT250
     FM152200 19006KT P6SM SCT100 BKN250
     FM160400 16006KT P6SM BKN090 OVC150
     FM160900 18007KT 4SM -SHRA BKN025 OVC060=

USA.gov is the U.S. government's official web portal to all federal, state and local government web resources and services.